sensor_id;sensor_type;location;lat;lon;timestamp;pressure;altitude;pressure_sealevel;temperature
66170;BMP280;66757;44.024;20.456;2023-11-21T00:00:25;97625.94;;;6.40
66170;BMP280;66757;44.024;20.456;2023-11-21T00:02:51;97619.31;;;6.43
66170;BMP280;66757;44.024;20.456;2023-11-21T00:05:16;97625.41;;;6.38
66170;BMP280;66757;44.024;20.456;2023-11-21T00:07:42;97627.50;;;6.41
66170;BMP280;66757;44.024;20.456;2023-11-21T00:10:09;97626.44;;;6.42
66170;BMP280;66757;44.024;20.456;2023-11-21T00:12:36;97624.78;;;6.46
66170;BMP280;66757;44.024;20.456;2023-11-21T00:15:03;97625.88;;;6.16
66170;BMP280;66757;44.024;20.456;2023-11-21T00:17:35;97620.75;;;6.30
66170;BMP280;66757;44.024;20.456;2023-11-21T00:20:01;97626.47;;;6.37
66170;BMP280;66757;44.024;20.456;2023-11-21T00:22:26;97639.06;;;6.45
66170;BMP280;66757;44.024;20.456;2023-11-21T00:24:52;97645.59;;;6.48
66170;BMP280;66757;44.024;20.456;2023-11-21T00:27:17;97645.09;;;6.46
66170;BMP280;66757;44.024;20.456;2023-11-21T00:29:43;97643.19;;;6.51
66170;BMP280;66757;44.024;20.456;2023-11-21T00:32:09;97647.66;;;6.51
66170;BMP280;66757;44.024;20.456;2023-11-21T00:34:35;97637.38;;;6.25
66170;BMP280;66757;44.024;20.456;2023-11-21T00:37:00;97645.00;;;6.27
66170;BMP280;66757;44.024;20.456;2023-11-21T00:39:25;97638.19;;;6.50
66170;BMP280;66757;44.024;20.456;2023-11-21T00:41:52;97630.47;;;6.58
66170;BMP280;66757;44.024;20.456;2023-11-21T00:44:17;97630.78;;;6.57
66170;BMP280;66757;44.024;20.456;2023-11-21T00:46:43;97626.38;;;6.47
66170;BMP280;66757;44.024;20.456;2023-11-21T00:49:09;97627.50;;;6.65
66170;BMP280;66757;44.024;20.456;2023-11-21T00:51:34;97625.72;;;6.61
66170;BMP280;66757;44.024;20.456;2023-11-21T00:54:02;97631.97;;;6.70
66170;BMP280;66757;44.024;20.456;2023-11-21T00:56:28;97627.84;;;6.58
66170;BMP280;66757;44.024;20.456;2023-11-21T00:58:53;97629.22;;;6.56
66170;BMP280;66757;44.024;20.456;2023-11-21T01:01:19;97620.66;;;6.40
66170;BMP280;66757;44.024;20.456;2023-11-21T01:03:48;97614.50;;;6.50
66170;BMP280;66757;44.024;20.456;2023-11-21T01:06:14;97611.16;;;6.10
66170;BMP280;66757;44.024;20.456;2023-11-21T01:08:41;97614.25;;;6.46
66170;BMP280;66757;44.024;20.456;2023-11-21T01:11:07;97620.00;;;6.53
66170;BMP280;66757;44.024;20.456;2023-11-21T01:13:38;97620.25;;;6.57
66170;BMP280;66757;44.024;20.456;2023-11-21T01:16:05;97615.28;;;6.50
66170;BMP280;66757;44.024;20.456;2023-11-21T01:18:32;97608.28;;;6.41
66170;BMP280;66757;44.024;20.456;2023-11-21T01:20:57;97605.00;;;6.49
66170;BMP280;66757;44.024;20.456;2023-11-21T01:23:23;97596.22;;;6.58
66170;BMP280;66757;44.024;20.456;2023-11-21T01:25:49;97593.81;;;6.62
66170;BMP280;66757;44.024;20.456;2023-11-21T01:28:16;97589.41;;;6.57
66170;BMP280;66757;44.024;20.456;2023-11-21T01:30:42;97580.22;;;6.55
66170;BMP280;66757;44.024;20.456;2023-11-21T01:33:08;97575.38;;;6.62
66170;BMP280;66757;44.024;20.456;2023-11-21T01:35:33;97577.50;;;6.60
66170;BMP280;66757;44.024;20.456;2023-11-21T01:37:59;97566.50;;;6.53
66170;BMP280;66757;44.024;20.456;2023-11-21T01:40:24;97576.53;;;6.51
66170;BMP280;66757;44.024;20.456;2023-11-21T01:42:50;97566.00;;;6.51
66170;BMP280;66757;44.024;20.456;2023-11-21T01:45:15;97563.22;;;6.42
66170;BMP280;66757;44.024;20.456;2023-11-21T01:47:42;97567.44;;;6.43
66170;BMP280;66757;44.024;20.456;2023-11-21T01:50:15;97563.50;;;6.41
66170;BMP280;66757;44.024;20.456;2023-11-21T01:52:44;97562.72;;;6.40
66170;BMP280;66757;44.024;20.456;2023-11-21T01:55:10;97562.59;;;6.50
66170;BMP280;66757;44.024;20.456;2023-11-21T01:57:36;97560.75;;;6.51
66170;BMP280;66757;44.024;20.456;2023-11-21T02:00:05;97558.88;;;6.51
66170;BMP280;66757;44.024;20.456;2023-11-21T02:02:45;97547.00;;;6.54
66170;BMP280;66757;44.024;20.456;2023-11-21T02:05:20;97555.44;;;6.56
66170;BMP280;66757;44.024;20.456;2023-11-21T02:07:46;97557.59;;;6.49
66170;BMP280;66757;44.024;20.456;2023-11-21T02:10:15;97554.97;;;6.49
66170;BMP280;66757;44.024;20.456;2023-11-21T02:12:41;97554.19;;;6.48
66170;BMP280;66757;44.024;20.456;2023-11-21T02:15:08;97547.84;;;6.49
66170;BMP280;66757;44.024;20.456;2023-11-21T02:17:43;97548.72;;;6.45
66170;BMP280;66757;44.024;20.456;2023-11-21T02:20:13;97546.13;;;6.40
66170;BMP280;66757;44.024;20.456;2023-11-21T02:22:44;97538.91;;;6.27
66170;BMP280;66757;44.024;20.456;2023-11-21T02:25:10;97536.78;;;6.23
66170;BMP280;66757;44.024;20.456;2023-11-21T02:27:36;97532.94;;;6.16
66170;BMP280;66757;44.024;20.456;2023-11-21T02:30:03;97530.38;;;6.06
66170;BMP280;66757;44.024;20.456;2023-11-21T02:32:30;97527.03;;;6.24
66170;BMP280;66757;44.024;20.456;2023-11-21T02:34:57;97528.16;;;6.18
66170;BMP280;66757;44.024;20.456;2023-11-21T02:37:26;97520.38;;;6.32
66170;BMP280;66757;44.024;20.456;2023-11-21T02:39:52;97522.19;;;6.12
66170;BMP280;66757;44.024;20.456;2023-11-21T02:42:18;97523.22;;;6.40
66170;BMP280;66757;44.024;20.456;2023-11-21T02:44:43;97512.63;;;6.45
66170;BMP280;66757;44.024;20.456;2023-11-21T02:47:09;97504.66;;;6.50
66170;BMP280;66757;44.024;20.456;2023-11-21T02:49:35;97503.09;;;6.25
66170;BMP280;66757;44.024;20.456;2023-11-21T02:52:01;97506.81;;;5.90
66170;BMP280;66757;44.024;20.456;2023-11-21T02:54:27;97499.13;;;6.28
66170;BMP280;66757;44.024;20.456;2023-11-21T02:56:52;97500.03;;;6.42
66170;BMP280;66757;44.024;20.456;2023-11-21T02:59:19;97494.31;;;6.54
66170;BMP280;66757;44.024;20.456;2023-11-21T03:01:45;97496.34;;;6.62
66170;BMP280;66757;44.024;20.456;2023-11-21T03:04:11;97501.31;;;6.45
66170;BMP280;66757;44.024;20.456;2023-11-21T03:06:41;97493.28;;;6.55
66170;BMP280;66757;44.024;20.456;2023-11-21T03:09:07;97495.94;;;6.55
66170;BMP280;66757;44.024;20.456;2023-11-21T03:11:33;97494.00;;;6.61
66170;BMP280;66757;44.024;20.456;2023-11-21T03:13:58;97495.28;;;6.63
66170;BMP280;66757;44.024;20.456;2023-11-21T03:16:23;97498.00;;;6.58
66170;BMP280;66757;44.024;20.456;2023-11-21T03:18:49;97499.47;;;6.64
66170;BMP280;66757;44.024;20.456;2023-11-21T03:21:15;97500.53;;;6.63
66170;BMP280;66757;44.024;20.456;2023-11-21T03:23:40;97495.22;;;6.68
66170;BMP280;66757;44.024;20.456;2023-11-21T03:26:06;97491.44;;;6.55
66170;BMP280;66757;44.024;20.456;2023-11-21T03:28:33;97490.94;;;6.30
66170;BMP280;66757;44.024;20.456;2023-11-21T03:30:59;97491.84;;;6.63
66170;BMP280;66757;44.024;20.456;2023-11-21T03:33:24;97488.44;;;6.38
66170;BMP280;66757;44.024;20.456;2023-11-21T03:35:50;97480.56;;;6.38
66170;BMP280;66757;44.024;20.456;2023-11-21T03:38:15;97480.53;;;6.62
66170;BMP280;66757;44.024;20.456;2023-11-21T03:40:41;97490.94;;;6.72
66170;BMP280;66757;44.024;20.456;2023-11-21T03:43:08;97483.53;;;6.74
66170;BMP280;66757;44.024;20.456;2023-11-21T03:45:33;97481.47;;;6.71
66170;BMP280;66757;44.024;20.456;2023-11-21T03:48:00;97481.41;;;6.57
66170;BMP280;66757;44.024;20.456;2023-11-21T03:50:30;97479.47;;;6.44
66170;BMP280;66757;44.024;20.456;2023-11-21T03:52:56;97473.31;;;6.49
66170;BMP280;66757;44.024;20.456;2023-11-21T03:55:22;97474.97;;;6.64
66170;BMP280;66757;44.024;20.456;2023-11-21T03:57:49;97472.84;;;6.66
66170;BMP280;66757;44.024;20.456;2023-11-21T04:00:15;97468.38;;;6.66
66170;BMP280;66757;44.024;20.456;2023-11-21T04:02:41;97455.56;;;6.78
66170;BMP280;66757;44.024;20.456;2023-11-21T04:05:06;97453.44;;;6.80
66170;BMP280;66757;44.024;20.456;2023-11-21T04:07:32;97454.28;;;6.76
66170;BMP280;66757;44.024;20.456;2023-11-21T04:09:59;97445.09;;;6.73
66170;BMP280;66757;44.024;20.456;2023-11-21T04:12:24;97446.88;;;6.78
66170;BMP280;66757;44.024;20.456;2023-11-21T04:14:50;97463.47;;;6.78
66170;BMP280;66757;44.024;20.456;2023-11-21T04:17:18;97464.72;;;6.62
66170;BMP280;66757;44.024;20.456;2023-11-21T04:19:44;97463.13;;;6.18
66170;BMP280;66757;44.024;20.456;2023-11-21T04:22:10;97459.72;;;6.42
66170;BMP280;66757;44.024;20.456;2023-11-21T04:24:35;97461.41;;;6.75
66170;BMP280;66757;44.024;20.456;2023-11-21T04:27:01;97461.78;;;6.87
66170;BMP280;66757;44.024;20.456;2023-11-21T04:29:28;97470.97;;;6.90
66170;BMP280;66757;44.024;20.456;2023-11-21T04:31:54;97468.09;;;6.86
66170;BMP280;66757;44.024;20.456;2023-11-21T04:34:19;97464.25;;;6.79
66170;BMP280;66757;44.024;20.456;2023-11-21T04:36:45;97461.84;;;6.82
66170;BMP280;66757;44.024;20.456;2023-11-21T04:39:10;97449.41;;;6.64
66170;BMP280;66757;44.024;20.456;2023-11-21T04:41:37;97447.66;;;6.78
66170;BMP280;66757;44.024;20.456;2023-11-21T04:44:06;97439.13;;;6.86
66170;BMP280;66757;44.024;20.456;2023-11-21T04:46:31;97444.38;;;6.68
66170;BMP280;66757;44.024;20.456;2023-11-21T04:48:58;97443.53;;;6.72
66170;BMP280;66757;44.024;20.456;2023-11-21T04:51:23;97444.94;;;6.65
66170;BMP280;66757;44.024;20.456;2023-11-21T04:53:49;97448.31;;;6.46
66170;BMP280;66757;44.024;20.456;2023-11-21T04:56:15;97444.06;;;6.50
66170;BMP280;66757;44.024;20.456;2023-11-21T04:58:41;97449.50;;;6.35
66170;BMP280;66757;44.024;20.456;2023-11-21T05:01:07;97444.53;;;6.57
66170;BMP280;66757;44.024;20.456;2023-11-21T05:03:33;97448.69;;;6.58
66170;BMP280;66757;44.024;20.456;2023-11-21T05:05:59;97437.97;;;6.55
66170;BMP280;66757;44.024;20.456;2023-11-21T05:08:25;97451.34;;;6.35
66170;BMP280;66757;44.024;20.456;2023-11-21T05:10:52;97444.13;;;6.21
66170;BMP280;66757;44.024;20.456;2023-11-21T05:13:19;97442.56;;;6.20
66170;BMP280;66757;44.024;20.456;2023-11-21T05:15:45;97453.41;;;6.43
66170;BMP280;66757;44.024;20.456;2023-11-21T05:18:11;97453.44;;;6.80
66170;BMP280;66757;44.024;20.456;2023-11-21T05:20:39;97465.25;;;6.83
66170;BMP280;66757;44.024;20.456;2023-11-21T05:23:04;97464.25;;;6.79
66170;BMP280;66757;44.024;20.456;2023-11-21T05:25:30;97455.16;;;6.90
66170;BMP280;66757;44.024;20.456;2023-11-21T05:27:55;97459.72;;;6.84
66170;BMP280;66757;44.024;20.456;2023-11-21T05:30:21;97467.63;;;6.84
66170;BMP280;66757;44.024;20.456;2023-11-21T05:32:47;97468.91;;;6.44
66170;BMP280;66757;44.024;20.456;2023-11-21T05:35:12;97464.03;;;6.33
66170;BMP280;66757;44.024;20.456;2023-11-21T05:37:45;97464.72;;;6.62
66170;BMP280;66757;44.024;20.456;2023-11-21T05:40:11;97460.13;;;6.91
66170;BMP280;66757;44.024;20.456;2023-11-21T05:42:39;97458.34;;;7.06
66170;BMP280;66757;44.024;20.456;2023-11-21T05:45:06;97451.72;;;7.08
66170;BMP280;66757;44.024;20.456;2023-11-21T05:50:03;97462.38;;;6.98
66170;BMP280;66757;44.024;20.456;2023-11-21T05:52:29;97448.38;;;7.03
66170;BMP280;66757;44.024;20.456;2023-11-21T05:54:55;97447.72;;;7.11
66170;BMP280;66757;44.024;20.456;2023-11-21T05:57:20;97450.78;;;7.18
66170;BMP280;66757;44.024;20.456;2023-11-21T05:59:46;97449.00;;;7.13
66170;BMP280;66757;44.024;20.456;2023-11-21T06:02:11;97454.06;;;7.10
66170;BMP280;66757;44.024;20.456;2023-11-21T06:04:36;97450.41;;;7.24
66170;BMP280;66757;44.024;20.456;2023-11-21T06:07:02;97453.94;;;7.20
66170;BMP280;66757;44.024;20.456;2023-11-21T06:09:28;97446.69;;;7.25
66170;BMP280;66757;44.024;20.456;2023-11-21T06:11:53;97444.56;;;7.28
66170;BMP280;66757;44.024;20.456;2023-11-21T06:14:18;97444.06;;;7.25
66170;BMP280;66757;44.024;20.456;2023-11-21T06:16:45;97442.22;;;7.26
66170;BMP280;66757;44.024;20.456;2023-11-21T06:19:11;97443.00;;;7.27
66170;BMP280;66757;44.024;20.456;2023-11-21T06:21:39;97439.91;;;7.06
66170;BMP280;66757;44.024;20.456;2023-11-21T06:24:04;97437.19;;;6.92
66170;BMP280;66757;44.024;20.456;2023-11-21T06:26:31;97445.34;;;7.28
66170;BMP280;66757;44.024;20.456;2023-11-21T06:28:57;97436.50;;;7.38
66170;BMP280;66757;44.024;20.456;2023-11-21T06:31:22;97432.13;;;7.47
66170;BMP280;66757;44.024;20.456;2023-11-21T06:33:48;97436.38;;;7.62
66170;BMP280;66757;44.024;20.456;2023-11-21T06:36:13;97441.47;;;7.39
66170;BMP280;66757;44.024;20.456;2023-11-21T06:38:39;97447.50;;;7.58
66170;BMP280;66757;44.024;20.456;2023-11-21T06:41:04;97439.91;;;7.38
66170;BMP280;66757;44.024;20.456;2023-11-21T06:43:30;97437.97;;;7.57
66170;BMP280;66757;44.024;20.456;2023-11-21T06:45:58;97448.88;;;7.70
66170;BMP280;66757;44.024;20.456;2023-11-21T06:48:25;97443.28;;;7.71
66170;BMP280;66757;44.024;20.456;2023-11-21T06:50:51;97437.22;;;7.43
66170;BMP280;66757;44.024;20.456;2023-11-21T06:53:17;97439.84;;;7.24
66170;BMP280;66757;44.024;20.456;2023-11-21T06:55:42;97430.66;;;7.22
66170;BMP280;66757;44.024;20.456;2023-11-21T06:58:08;97426.09;;;7.60
66170;BMP280;66757;44.024;20.456;2023-11-21T07:00:33;97428.25;;;7.44
66170;BMP280;66757;44.024;20.456;2023-11-21T07:02:59;97438.53;;;7.87
66170;BMP280;66757;44.024;20.456;2023-11-21T07:05:24;97447.81;;;8.12
66170;BMP280;66757;44.024;20.456;2023-11-21T07:07:50;97434.94;;;8.24
66170;BMP280;66757;44.024;20.456;2023-11-21T07:10:16;97441.09;;;7.92
66170;BMP280;66757;44.024;20.456;2023-11-21T07:12:42;97430.00;;;7.63
66170;BMP280;66757;44.024;20.456;2023-11-21T07:15:10;97429.84;;;8.00
66170;BMP280;66757;44.024;20.456;2023-11-21T07:17:36;97427.41;;;8.04
66170;BMP280;66757;44.024;20.456;2023-11-21T07:20:03;97424.66;;;8.36
66170;BMP280;66757;44.024;20.456;2023-11-21T07:22:28;97433.84;;;7.84
66170;BMP280;66757;44.024;20.456;2023-11-21T07:24:55;97434.28;;;8.18
66170;BMP280;66757;44.024;20.456;2023-11-21T07:27:21;97441.13;;;8.19
66170;BMP280;66757;44.024;20.456;2023-11-21T07:29:47;97439.22;;;7.93
66170;BMP280;66757;44.024;20.456;2023-11-21T07:32:14;97435.72;;;8.24
66170;BMP280;66757;44.024;20.456;2023-11-21T07:34:40;97427.50;;;7.99
66170;BMP280;66757;44.024;20.456;2023-11-21T07:37:07;97426.34;;;7.77
66170;BMP280;66757;44.024;20.456;2023-11-21T07:39:34;97422.00;;;8.36
66170;BMP280;66757;44.024;20.456;2023-11-21T07:42:01;97428.13;;;8.59
66170;BMP280;66757;44.024;20.456;2023-11-21T07:44:28;97424.59;;;8.64
66170;BMP280;66757;44.024;20.456;2023-11-21T07:46:54;97419.75;;;8.79
66170;BMP280;66757;44.024;20.456;2023-11-21T07:49:26;97411.44;;;8.72
66170;BMP280;66757;44.024;20.456;2023-11-21T07:51:52;97405.50;;;8.89
66170;BMP280;66757;44.024;20.456;2023-11-21T07:54:17;97400.47;;;9.01
66170;BMP280;66757;44.024;20.456;2023-11-21T07:56:43;97398.75;;;9.05
66170;BMP280;66757;44.024;20.456;2023-11-21T07:59:08;97386.94;;;9.03
66170;BMP280;66757;44.024;20.456;2023-11-21T08:01:34;97383.69;;;9.06
66170;BMP280;66757;44.024;20.456;2023-11-21T08:03:59;97385.50;;;8.97
66170;BMP280;66757;44.024;20.456;2023-11-21T08:06:29;97379.97;;;9.07
66170;BMP280;66757;44.024;20.456;2023-11-21T08:08:56;97369.78;;;9.22
66170;BMP280;66757;44.024;20.456;2023-11-21T08:11:22;97376.47;;;9.20
66170;BMP280;66757;44.024;20.456;2023-11-21T08:13:47;97383.78;;;9.23
66170;BMP280;66757;44.024;20.456;2023-11-21T08:16:13;97383.28;;;9.43
66170;BMP280;66757;44.024;20.456;2023-11-21T08:18:38;97369.69;;;9.36
66170;BMP280;66757;44.024;20.456;2023-11-21T08:21:05;97380.00;;;9.38
66170;BMP280;66757;44.024;20.456;2023-11-21T08:23:31;97369.59;;;9.50
66170;BMP280;66757;44.024;20.456;2023-11-21T08:25:56;97373.09;;;9.28
66170;BMP280;66757;44.024;20.456;2023-11-21T08:28:22;97368.31;;;9.08
66170;BMP280;66757;44.024;20.456;2023-11-21T08:30:51;97374.81;;;9.33
66170;BMP280;66757;44.024;20.456;2023-11-21T08:33:17;97358.31;;;9.36
66170;BMP280;66757;44.024;20.456;2023-11-21T08:35:44;97369.13;;;9.39
66170;BMP280;66757;44.024;20.456;2023-11-21T08:38:09;97365.53;;;9.44
66170;BMP280;66757;44.024;20.456;2023-11-21T08:40:35;97363.06;;;9.16
66170;BMP280;66757;44.024;20.456;2023-11-21T08:43:01;97363.34;;;9.37
66170;BMP280;66757;44.024;20.456;2023-11-21T08:45:30;97363.06;;;9.47
66170;BMP280;66757;44.024;20.456;2023-11-21T08:47:56;97370.09;;;9.60
66170;BMP280;66757;44.024;20.456;2023-11-21T08:50:22;97365.16;;;9.68
66170;BMP280;66757;44.024;20.456;2023-11-21T08:52:48;97350.88;;;9.86
66170;BMP280;66757;44.024;20.456;2023-11-21T08:55:14;97343.72;;;9.95
66170;BMP280;66757;44.024;20.456;2023-11-21T08:57:43;97339.69;;;10.06
66170;BMP280;66757;44.024;20.456;2023-11-21T09:00:09;97336.72;;;9.90
66170;BMP280;66757;44.024;20.456;2023-11-21T09:02:39;97336.06;;;9.76
66170;BMP280;66757;44.024;20.456;2023-11-21T09:05:08;97335.97;;;10.07
66170;BMP280;66757;44.024;20.456;2023-11-21T09:07:34;97329.59;;;10.17
66170;BMP280;66757;44.024;20.456;2023-11-21T09:10:01;97328.44;;;9.75
66170;BMP280;66757;44.024;20.456;2023-11-21T09:12:27;97329.41;;;9.96
66170;BMP280;66757;44.024;20.456;2023-11-21T09:14:52;97321.09;;;9.72
66170;BMP280;66757;44.024;20.456;2023-11-21T09:17:18;97313.66;;;9.91
66170;BMP280;66757;44.024;20.456;2023-11-21T09:19:44;97308.53;;;10.20
66170;BMP280;66757;44.024;20.456;2023-11-21T09:22:12;97316.66;;;10.33
66170;BMP280;66757;44.024;20.456;2023-11-21T09:24:38;97314.59;;;10.47
66170;BMP280;66757;44.024;20.456;2023-11-21T09:27:04;97310.56;;;10.49
66170;BMP280;66757;44.024;20.456;2023-11-21T09:29:30;97308.53;;;10.38
66170;BMP280;66757;44.024;20.456;2023-11-21T09:31:58;97297.31;;;10.41
66170;BMP280;66757;44.024;20.456;2023-11-21T09:34:25;97292.50;;;10.43
66170;BMP280;66757;44.024;20.456;2023-11-21T09:36:51;97284.34;;;10.48
66170;BMP280;66757;44.024;20.456;2023-11-21T09:39:17;97283.41;;;10.61
66170;BMP280;66757;44.024;20.456;2023-11-21T09:41:49;97276.22;;;10.61
66170;BMP280;66757;44.024;20.456;2023-11-21T09:44:18;97269.22;;;10.57
66170;BMP280;66757;44.024;20.456;2023-11-21T09:46:47;97256.28;;;10.47
66170;BMP280;66757;44.024;20.456;2023-11-21T09:49:18;97252.06;;;10.54
66170;BMP280;66757;44.024;20.456;2023-11-21T09:51:45;97255.16;;;10.65
66170;BMP280;66757;44.024;20.456;2023-11-21T09:54:13;97261.13;;;10.45
66170;BMP280;66757;44.024;20.456;2023-11-21T09:56:41;97261.00;;;10.41
66170;BMP280;66757;44.024;20.456;2023-11-21T09:59:11;97249.69;;;10.61
66170;BMP280;66757;44.024;20.456;2023-11-21T10:01:38;97238.88;;;10.84
66170;BMP280;66757;44.024;20.456;2023-11-21T10:04:04;97243.28;;;10.71
66170;BMP280;66757;44.024;20.456;2023-11-21T10:06:38;97244.88;;;10.55
66170;BMP280;66757;44.024;20.456;2023-11-21T10:09:04;97241.75;;;10.70
66170;BMP280;66757;44.024;20.456;2023-11-21T10:11:41;97246.31;;;10.52
66170;BMP280;66757;44.024;20.456;2023-11-21T10:14:10;97239.28;;;10.56
66170;BMP280;66757;44.024;20.456;2023-11-21T10:16:38;97230.75;;;10.25
66170;BMP280;66757;44.024;20.456;2023-11-21T10:19:04;97229.31;;;10.45
66170;BMP280;66757;44.024;20.456;2023-11-21T10:21:34;97236.97;;;10.20
66170;BMP280;66757;44.024;20.456;2023-11-21T10:24:00;97225.00;;;10.32
66170;BMP280;66757;44.024;20.456;2023-11-21T10:26:28;97227.56;;;10.66
66170;BMP280;66757;44.024;20.456;2023-11-21T10:28:57;97222.72;;;10.68
66170;BMP280;66757;44.024;20.456;2023-11-21T10:31:27;97219.97;;;10.39
66170;BMP280;66757;44.024;20.456;2023-11-21T10:33:52;97220.53;;;10.53
66170;BMP280;66757;44.024;20.456;2023-11-21T10:36:27;97216.72;;;10.42
66170;BMP280;66757;44.024;20.456;2023-11-21T10:38:54;97217.66;;;10.20
66170;BMP280;66757;44.024;20.456;2023-11-21T10:41:23;97224.41;;;10.00
66170;BMP280;66757;44.024;20.456;2023-11-21T10:43:48;97235.00;;;10.00
66170;BMP280;66757;44.024;20.456;2023-11-21T10:46:14;97232.94;;;10.40
66170;BMP280;66757;44.024;20.456;2023-11-21T10:48:41;97235.06;;;10.55
66170;BMP280;66757;44.024;20.456;2023-11-21T10:51:08;97241.94;;;10.48
66170;BMP280;66757;44.024;20.456;2023-11-21T10:53:38;97227.56;;;10.66
66170;BMP280;66757;44.024;20.456;2023-11-21T10:56:06;97230.75;;;10.34
66170;BMP280;66757;44.024;20.456;2023-11-21T10:58:52;97224.78;;;10.45
66170;BMP280;66757;44.024;20.456;2023-11-21T11:01:19;97227.72;;;10.61
66170;BMP280;66757;44.024;20.456;2023-11-21T11:03:47;97229.63;;;10.52
66170;BMP280;66757;44.024;20.456;2023-11-21T11:06:14;97229.66;;;10.35
66170;BMP280;66757;44.024;20.456;2023-11-21T11:08:40;97216.66;;;10.59
66170;BMP280;66757;44.024;20.456;2023-11-21T11:11:06;97213.81;;;10.64
66170;BMP280;66757;44.024;20.456;2023-11-21T11:13:33;97213.19;;;10.76
66170;BMP280;66757;44.024;20.456;2023-11-21T11:16:00;97217.03;;;10.78
66170;BMP280;66757;44.024;20.456;2023-11-21T11:18:27;97210.19;;;10.77
66170;BMP280;66757;44.024;20.456;2023-11-21T11:20:54;97202.69;;;10.79
66170;BMP280;66757;44.024;20.456;2023-11-21T11:26:32;97191.81;;;10.17
66170;BMP280;66757;44.024;20.456;2023-11-21T11:29:14;97185.84;;;10.28
66170;BMP280;66757;44.024;20.456;2023-11-21T11:32:00;97185.38;;;10.44
66170;BMP280;66757;44.024;20.456;2023-11-21T11:34:32;97178.13;;;10.61
66170;BMP280;66757;44.024;20.456;2023-11-21T11:37:03;97162.34;;;10.27
66170;BMP280;66757;44.024;20.456;2023-11-21T11:39:30;97164.81;;;10.41
66170;BMP280;66757;44.024;20.456;2023-11-21T11:41:57;97156.28;;;10.26
66170;BMP280;66757;44.024;20.456;2023-11-21T11:47:22;97174.03;;;10.26
66170;BMP280;66757;44.024;20.456;2023-11-21T11:50:04;97168.75;;;10.26
66170;BMP280;66757;44.024;20.456;2023-11-21T11:52:50;97167.72;;;10.39
66170;BMP280;66757;44.024;20.456;2023-11-21T11:55:18;97165.84;;;10.48
66170;BMP280;66757;44.024;20.456;2023-11-21T11:57:49;97163.00;;;10.53
66170;BMP280;66757;44.024;20.456;2023-11-21T12:00:22;97157.31;;;10.43
66170;BMP280;66757;44.024;20.456;2023-11-21T12:03:01;97147.16;;;10.45
66170;BMP280;66757;44.024;20.456;2023-11-21T12:05:30;97147.03;;;10.41
66170;BMP280;66757;44.024;20.456;2023-11-21T12:08:03;97146.00;;;10.54
66170;BMP280;66757;44.024;20.456;2023-11-21T12:10:35;97145.88;;;10.59
66170;BMP280;66757;44.024;20.456;2023-11-21T12:13:03;97136.66;;;10.57
66170;BMP280;66757;44.024;20.456;2023-11-21T12:15:33;97122.03;;;10.51
66170;BMP280;66757;44.024;20.456;2023-11-21T12:18:00;97111.25;;;10.56
66170;BMP280;66757;44.024;20.456;2023-11-21T12:20:28;97123.28;;;10.45
66170;BMP280;66757;44.024;20.456;2023-11-21T12:22:58;97121.22;;;10.59
66170;BMP280;66757;44.024;20.456;2023-11-21T12:25:32;97124.38;;;9.97
66170;BMP280;66757;44.024;20.456;2023-11-21T12:28:00;97123.56;;;10.05
66170;BMP280;66757;44.024;20.456;2023-11-21T12:30:29;97117.75;;;10.20
66170;BMP280;66757;44.024;20.456;2023-11-21T12:33:00;97107.81;;;10.26
66170;BMP280;66757;44.024;20.456;2023-11-21T12:35:30;97107.81;;;10.26
66170;BMP280;66757;44.024;20.456;2023-11-21T12:37:59;97112.59;;;10.24
66170;BMP280;66757;44.024;20.456;2023-11-21T12:40:25;97099.66;;;10.22
66170;BMP280;66757;44.024;20.456;2023-11-21T12:42:56;97103.84;;;10.32
66170;BMP280;66757;44.024;20.456;2023-11-21T12:45:23;97103.56;;;10.25
66170;BMP280;66757;44.024;20.456;2023-11-21T12:47:53;97085.38;;;10.06
66170;BMP280;66757;44.024;20.456;2023-11-21T12:50:23;97089.28;;;10.47
66170;BMP280;66757;44.024;20.456;2023-11-21T12:53:14;97078.38;;;10.48
66170;BMP280;66757;44.024;20.456;2023-11-21T12:55:43;97082.09;;;10.56
66170;BMP280;66757;44.024;20.456;2023-11-21T12:58:15;97068.94;;;10.30
66170;BMP280;66757;44.024;20.456;2023-11-21T13:00:46;97059.81;;;10.10
66170;BMP280;66757;44.024;20.456;2023-11-21T13:03:13;97050.78;;;10.11
66170;BMP280;66757;44.024;20.456;2023-11-21T13:05:42;97061.22;;;10.16
66170;BMP280;66757;44.024;20.456;2023-11-21T13:08:10;97068.06;;;10.26
66170;BMP280;66757;44.024;20.456;2023-11-21T13:10:40;97066.63;;;10.28
66170;BMP280;66757;44.024;20.456;2023-11-21T13:13:08;97047.41;;;10.02
66170;BMP280;66757;44.024;20.456;2023-11-21T13:15:40;97057.59;;;10.21
66170;BMP280;66757;44.024;20.456;2023-11-21T13:18:06;97045.31;;;10.46
66170;BMP280;66757;44.024;20.456;2023-11-21T13:20:33;97048.75;;;10.46
66170;BMP280;66757;44.024;20.456;2023-11-21T13:22:59;97046.03;;;10.55
66170;BMP280;66757;44.024;20.456;2023-11-21T13:25:30;97053.28;;;10.75
66170;BMP280;66757;44.024;20.456;2023-11-21T13:28:00;97046.16;;;10.67
66170;BMP280;66757;44.024;20.456;2023-11-21T13:30:29;97034.97;;;10.53
66170;BMP280;66757;44.024;20.456;2023-11-21T13:33:05;97034.50;;;10.59
66170;BMP280;66757;44.024;20.456;2023-11-21T13:35:37;97041.31;;;10.69
66170;BMP280;66757;44.024;20.456;2023-11-21T13:38:10;97034.19;;;10.82
66170;BMP280;66757;44.024;20.456;2023-11-21T13:40:37;97040.88;;;10.88
66170;BMP280;66757;44.024;20.456;2023-11-21T13:43:13;97057.56;;;10.88
66170;BMP280;66757;44.024;20.456;2023-11-21T13:45:43;97055.03;;;10.71
66170;BMP280;66757;44.024;20.456;2023-11-21T13:48:10;97069.44;;;10.82
66170;BMP280;66757;44.024;20.456;2023-11-21T13:50:44;97079.88;;;10.87
66170;BMP280;66757;44.024;20.456;2023-11-21T13:53:21;97095.19;;;10.82
66170;BMP280;66757;44.024;20.456;2023-11-21T13:55:53;97090.69;;;11.03
66170;BMP280;66757;44.024;20.456;2023-11-21T13:58:25;97085.00;;;10.92
66170;BMP280;66757;44.024;20.456;2023-11-21T14:01:04;97086.22;;;10.74
66170;BMP280;66757;44.024;20.456;2023-11-21T14:03:31;97077.97;;;10.67
66170;BMP280;66757;44.024;20.456;2023-11-21T14:06:10;97054.25;;;10.71
66170;BMP280;66757;44.024;20.456;2023-11-21T14:08:40;97028.44;;;10.80
66170;BMP280;66757;44.024;20.456;2023-11-21T14:11:07;97028.44;;;10.59
66170;BMP280;66757;44.024;20.456;2023-11-21T14:13:33;97026.78;;;10.75